Time;durP1;ratioP1;P1;durP2;ratioP2;P2;SDS_P1;SDS_P2;PMS_P1;PMS_P2;Temp;Humidity;BMP_temperature;BMP_pressure;BME280_temperature;BME280_humidity;BME280_pressure;Samples;Min_cycle;Max_cycle;Signal;HPM_P1;HPM_P2
2022/07/26 00:02:00;;;;;;;7.47;4.15;;;;;;;;;;5110131;28;20035;-68
2022/07/26 00:04:26;;;;;;;6.28;4.00;;;;;;;;;;5093588;28;20017;-65
2022/07/26 00:06:52;;;;;;;8.90;3.72;;;;;;;;;;5093535;28;20388;-65
2022/07/26 00:09:18;;;;;;;7.70;3.78;;;;;;;;;;5093380;28;20032;-66
2022/07/26 00:11:44;;;;;;;9.23;3.95;;;;;;;;;;5093511;28;20103;-65
2022/07/26 00:14:10;;;;;;;9.13;4.07;;;;;;;;;;5093401;28;20066;-65
2022/07/26 00:16:38;;;;;;;7.50;3.70;;;;;;;;;;5093270;28;20407;-64
2022/07/26 00:19:06;;;;;;;6.95;3.95;;;;;;;;;;5093351;28;20036;-65
2022/07/26 00:21:33;;;;;;;9.00;4.30;;;;;;;;;;5093118;28;20491;-65
2022/07/26 00:23:59;;;;;;;7.03;3.92;;;;;;;;;;5093225;28;20040;-63
2022/07/26 00:26:24;;;;;;;8.57;4.30;;;;;;;;;;5093031;28;20490;-67
2022/07/26 00:28:50;;;;;;;6.70;4.22;;;;;;;;;;5093216;28;20127;-67
2022/07/26 00:31:15;;;;;;;8.38;4.15;;;;;;;;;;5093242;28;20020;-67
2022/07/26 00:33:41;;;;;;;5.93;4.22;;;;;;;;;;5093215;28;20020;-68
2022/07/26 00:36:07;;;;;;;10.38;5.00;;;;;;;;;;5092901;28;20508;-67
2022/07/26 00:38:32;;;;;;;10.07;4.28;;;;;;;;;;5092976;28;20024;-67
2022/07/26 00:40:58;;;;;;;5.65;3.97;;;;;;;;;;5093087;28;20032;-65
2022/07/26 00:43:24;;;;;;;6.63;4.30;;;;;;;;;;5092905;28;20051;-65
2022/07/26 00:45:49;;;;;;;7.45;3.90;;;;;;;;;;5091641;28;20032;-65
2022/07/26 00:48:16;;;;;;;7.75;4.20;;;;;;;;;;5092675;28;20020;-62
2022/07/26 00:50:41;;;;;;;7.25;4.03;;;;;;;;;;5092846;28;20020;-66
2022/07/26 00:53:07;;;;;;;6.53;4.00;;;;;;;;;;5092821;28;20108;-65
2022/07/26 00:55:33;;;;;;;9.60;4.35;;;;;;;;;;5092838;28;20024;-65
2022/07/26 00:58:00;;;;;;;5.90;4.05;;;;;;;;;;5092895;28;20040;-65
2022/07/26 01:00:27;;;;;;;8.63;4.65;;;;;;;;;;5092778;28;20028;-64
2022/07/26 01:02:54;;;;;;;8.77;4.85;;;;;;;;;;5092500;28;20020;-64
2022/07/26 01:05:21;;;;;;;9.45;4.80;;;;;;;;;;5092670;28;20023;-68
2022/07/26 01:07:48;;;;;;;7.45;5.25;;;;;;;;;;5092788;28;20069;-65
2022/07/26 01:10:14;;;;;;;11.88;5.18;;;;;;;;;;5092834;28;20166;-65
2022/07/26 01:12:41;;;;;;;8.00;4.85;;;;;;;;;;5092512;28;20066;-65
2022/07/26 01:15:08;;;;;;;10.52;5.25;;;;;;;;;;5092635;28;20020;-64
2022/07/26 01:17:34;;;;;;;19.27;5.90;;;;;;;;;;5092391;28;20024;-64
2022/07/26 01:19:59;;;;;;;8.52;5.20;;;;;;;;;;5092379;28;20036;-65
2022/07/26 01:22:25;;;;;;;12.00;5.60;;;;;;;;;;5092535;28;20031;-65
2022/07/26 01:24:50;;;;;;;9.13;5.43;;;;;;;;;;5092378;28;20485;-68
2022/07/26 01:27:16;;;;;;;11.07;6.32;;;;;;;;;;5092564;28;20069;-68
2022/07/26 01:29:42;;;;;;;8.93;6.15;;;;;;;;;;5095112;28;20488;-66
2022/07/26 01:32:08;;;;;;;11.77;6.50;;;;;;;;;;5096463;28;20024;-67
2022/07/26 01:34:33;;;;;;;10.13;6.25;;;;;;;;;;5096452;28;20389;-65
2022/07/26 01:36:59;;;;;;;10.93;5.85;;;;;;;;;;5096512;28;20028;-66
2022/07/26 01:39:25;;;;;;;14.23;5.97;;;;;;;;;;5096435;28;20028;-66
2022/07/26 01:41:51;;;;;;;8.85;5.70;;;;;;;;;;5096469;28;20086;-65
2022/07/26 01:44:16;;;;;;;11.65;5.65;;;;;;;;;;5096523;28;20119;-67
2022/07/26 01:46:42;;;;;;;9.95;5.43;;;;;;;;;;5096168;28;20404;-66
2022/07/26 01:49:08;;;;;;;9.70;5.50;;;;;;;;;;5096271;28;20469;-66
2022/07/26 01:51:34;;;;;;;9.15;5.43;;;;;;;;;;5096295;28;20422;-63
2022/07/26 01:54:00;;;;;;;9.23;5.60;;;;;;;;;;5096097;28;20028;-66
2022/07/26 01:56:26;;;;;;;9.20;5.57;;;;;;;;;;5096532;28;20354;-66
2022/07/26 01:58:51;;;;;;;9.93;5.45;;;;;;;;;;5096289;28;20024;-65
2022/07/26 02:01:17;;;;;;;8.57;5.53;;;;;;;;;;5095829;28;20379;-66
2022/07/26 02:03:43;;;;;;;9.50;5.20;;;;;;;;;;5095828;28;20536;-65
2022/07/26 02:06:08;;;;;;;9.82;5.30;;;;;;;;;;5095961;28;20052;-66
2022/07/26 02:08:34;;;;;;;7.38;4.75;;;;;;;;;;5095749;28;20377;-63
2022/07/26 02:10:59;;;;;;;13.70;5.63;;;;;;;;;;5095873;28;20452;-64
2022/07/26 02:13:32;;;;;;;8.25;5.88;;;;;;;;;;5095720;28;20099;-65
2022/07/26 02:15:58;;;;;;;13.23;5.97;;;;;;;;;;5095571;28;20016;-66
2022/07/26 02:18:28;;;;;;;10.95;6.95;;;;;;;;;;5095637;28;20516;-66
2022/07/26 02:20:54;;;;;;;11.05;6.03;;;;;;;;;;5095640;28;20060;-65
2022/07/26 02:23:21;;;;;;;12.05;6.28;;;;;;;;;;5095578;28;20024;-66
2022/07/26 02:25:47;;;;;;;12.20;6.40;;;;;;;;;;5095213;28;20093;-64
2022/07/26 02:28:13;;;;;;;12.63;6.43;;;;;;;;;;5095590;28;20032;-64
2022/07/26 02:30:39;;;;;;;10.00;6.20;;;;;;;;;;5095311;28;20370;-65
2022/07/26 02:33:05;;;;;;;13.93;6.35;;;;;;;;;;5095437;28;20085;-66
2022/07/26 02:35:30;;;;;;;10.05;5.93;;;;;;;;;;5095447;28;20433;-66
2022/07/26 02:38:03;;;;;;;10.82;6.20;;;;;;;;;;5095409;28;20073;-66
2022/07/26 02:40:29;;;;;;;12.68;6.25;;;;;;;;;;5093904;28;20024;-66
2022/07/26 02:42:54;;;;;;;15.55;7.00;;;;;;;;;;5095296;28;20137;-64
2022/07/26 02:45:20;;;;;;;12.52;6.20;;;;;;;;;;5095047;28;20051;-65
2022/07/26 02:47:47;;;;;;;8.65;5.70;;;;;;;;;;5095175;28;20315;-65
2022/07/26 02:50:16;;;;;;;10.95;5.53;;;;;;;;;;5095107;28;20032;-66
2022/07/26 02:52:41;;;;;;;12.90;5.88;;;;;;;;;;5094959;28;20476;-66
2022/07/26 02:55:07;;;;;;;10.05;5.38;;;;;;;;;;5095131;28;20108;-67
2022/07/26 02:57:33;;;;;;;8.57;5.53;;;;;;;;;;5094986;28;20020;-66
2022/07/26 02:59:59;;;;;;;12.07;5.70;;;;;;;;;;5094805;28;20392;-65
2022/07/26 03:02:24;;;;;;;12.15;5.72;;;;;;;;;;5094819;28;20020;-66
2022/07/26 03:04:49;;;;;;;9.77;5.45;;;;;;;;;;5094842;28;20028;-64
2022/07/26 03:07:15;;;;;;;10.73;5.25;;;;;;;;;;5094750;28;20416;-67
2022/07/26 03:09:41;;;;;;;9.45;5.45;;;;;;;;;;5094489;28;20039;-66
2022/07/26 03:12:07;;;;;;;8.18;4.93;;;;;;;;;;5094552;28;20031;-65
2022/07/26 03:14:32;;;;;;;9.55;5.40;;;;;;;;;;5094408;28;20020;-64
2022/07/26 03:16:58;;;;;;;10.57;5.25;;;;;;;;;;5094522;28;20051;-65
2022/07/26 03:19:23;;;;;;;10.48;4.97;;;;;;;;;;5094253;28;20035;-63
2022/07/26 03:21:49;;;;;;;8.82;4.78;;;;;;;;;;5094486;28;20060;-65
2022/07/26 03:24:14;;;;;;;12.55;5.75;;;;;;;;;;5094478;28;20107;-66
2022/07/26 03:26:40;;;;;;;8.48;4.93;;;;;;;;;;5094194;28;20419;-65
2022/07/26 03:29:05;;;;;;;15.90;5.15;;;;;;;;;;5094031;28;20028;-66
2022/07/26 03:31:31;;;;;;;10.57;4.80;;;;;;;;;;5094318;28;20165;-66
2022/07/26 03:33:56;;;;;;;11.10;5.13;;;;;;;;;;5094222;28;20087;-67
2022/07/26 03:36:22;;;;;;;9.48;4.95;;;;;;;;;;5094422;28;20024;-67
2022/07/26 03:38:47;;;;;;;8.88;5.50;;;;;;;;;;5093957;28;20020;-66
2022/07/26 03:41:13;;;;;;;11.82;5.18;;;;;;;;;;5093658;28;20487;-65
2022/07/26 03:43:38;;;;;;;15.00;5.13;;;;;;;;;;5093765;28;20035;-67
2022/07/26 03:46:04;;;;;;;12.52;4.88;;;;;;;;;;5094049;28;20050;-66
2022/07/26 03:48:30;;;;;;;11.15;5.28;;;;;;;;;;5093913;28;20032;-66
2022/07/26 03:50:55;;;;;;;9.50;5.07;;;;;;;;;;5093742;28;20024;-67
2022/07/26 03:53:21;;;;;;;11.45;5.20;;;;;;;;;;5093495;28;20024;-67
2022/07/26 03:58:30;;;;;;;14.63;5.05;;;;;;;;;;5093491;28;20038;-66
2022/07/26 04:00:56;;;;;;;14.93;5.80;;;;;;;;;;5093788;28;20434;-66
2022/07/26 04:03:22;;;;;;;12.10;5.45;;;;;;;;;;5093608;28;20040;-67
2022/07/26 04:05:47;;;;;;;11.05;5.03;;;;;;;;;;5093626;28;20020;-66
2022/07/26 04:08:13;;;;;;;8.85;5.32;;;;;;;;;;5093368;28;20461;-67
2022/07/26 04:10:38;;;;;;;10.43;5.35;;;;;;;;;;5093506;28;20476;-65
2022/07/26 04:13:04;;;;;;;9.45;5.05;;;;;;;;;;5093180;28;20150;-68
2022/07/26 04:15:29;;;;;;;8.60;4.72;;;;;;;;;;5093504;28;20101;-67
2022/07/26 04:17:55;;;;;;;10.63;4.90;;;;;;;;;;5093381;28;20031;-67
2022/07/26 04:20:20;;;;;;;12.65;5.35;;;;;;;;;;5093323;28;20039;-65
2022/07/26 04:22:46;;;;;;;14.45;6.10;;;;;;;;;;5093341;28;20105;-66
2022/07/26 04:25:11;;;;;;;12.45;5.93;;;;;;;;;;5093107;28;20040;-64
2022/07/26 04:27:37;;;;;;;9.10;5.45;;;;;;;;;;5093138;28;20032;-68
2022/07/26 04:30:18;;;;;;;8.43;5.47;;;;;;;;;;5050787;28;20049;-67
2022/07/26 04:32:44;;;;;;;11.68;5.45;;;;;;;;;;5050878;28;20037;-68
2022/07/26 04:35:10;;;;;;;12.25;5.05;;;;;;;;;;5050788;28;20115;-66
2022/07/26 04:37:43;;;;;;;14.02;6.00;;;;;;;;;;5050853;28;20439;-65
2022/07/26 04:40:10;;;;;;;12.63;5.57;;;;;;;;;;5050777;28;20071;-65
2022/07/26 04:42:36;;;;;;;15.48;5.88;;;;;;;;;;5050322;28;20076;-65
2022/07/26 04:45:03;;;;;;;11.05;5.75;;;;;;;;;;5050586;28;20061;-66
2022/07/26 04:47:29;;;;;;;16.10;5.93;;;;;;;;;;5050642;28;20394;-66
2022/07/26 04:49:55;;;;;;;12.38;6.38;;;;;;;;;;5050325;28;20063;-65
2022/07/26 04:52:20;;;;;;;13.40;5.95;;;;;;;;;;5050361;28;20112;-65
2022/07/26 04:54:46;;;;;;;10.80;5.70;;;;;;;;;;5050158;28;20040;-64
2022/07/26 04:57:11;;;;;;;14.23;5.93;;;;;;;;;;5050273;28;20040;-64
2022/07/26 04:59:37;;;;;;;12.85;5.95;;;;;;;;;;5050472;28;20086;-66
2022/07/26 05:02:02;;;;;;;11.00;5.63;;;;;;;;;;5050504;28;20049;-65
2022/07/26 05:04:28;;;;;;;15.07;5.50;;;;;;;;;;5049544;28;20465;-64
2022/07/26 05:06:53;;;;;;;9.95;5.00;;;;;;;;;;5061624;28;20043;-65
2022/07/26 05:09:19;;;;;;;11.38;5.07;;;;;;;;;;5092359;28;20542;-65
2022/07/26 05:11:44;;;;;;;13.90;6.07;;;;;;;;;;5092793;28;20035;-65
2022/07/26 05:14:10;;;;;;;13.35;5.57;;;;;;;;;;5092678;28;20027;-66
2022/07/26 05:16:35;;;;;;;9.90;5.72;;;;;;;;;;5092456;28;20143;-64
2022/07/26 05:19:01;;;;;;;11.80;5.40;;;;;;;;;;5092411;28;20024;-64
2022/07/26 05:21:26;;;;;;;8.65;5.45;;;;;;;;;;5092581;28;20103;-65
2022/07/26 05:23:53;;;;;;;10.90;6.20;;;;;;;;;;5090869;28;20032;-63
2022/07/26 05:26:19;;;;;;;10.45;6.25;;;;;;;;;;5092439;28;20032;-65
2022/07/26 05:28:45;;;;;;;10.32;5.88;;;;;;;;;;5092227;28;20374;-65
2022/07/26 05:31:10;;;;;;;17.05;5.05;;;;;;;;;;5092305;28;20023;-65
2022/07/26 05:33:36;;;;;;;8.25;5.10;;;;;;;;;;5092448;28;20020;-65
2022/07/26 05:36:02;;;;;;;14.77;6.00;;;;;;;;;;5092407;28;20024;-64
2022/07/26 05:38:27;;;;;;;11.13;5.57;;;;;;;;;;5092152;28;20224;-64
2022/07/26 05:40:53;;;;;;;11.18;5.30;;;;;;;;;;5092447;28;20028;-65
2022/07/26 05:43:18;;;;;;;13.85;6.05;;;;;;;;;;5092295;28;20050;-65
2022/07/26 05:45:44;;;;;;;9.90;5.25;;;;;;;;;;5092263;28;20047;-64
2022/07/26 05:48:09;;;;;;;10.07;6.20;;;;;;;;;;5092307;28;20384;-65
2022/07/26 05:50:35;;;;;;;12.90;5.82;;;;;;;;;;5092257;28;20027;-65
2022/07/26 05:53:01;;;;;;;10.65;4.82;;;;;;;;;;5091739;28;20154;-65
2022/07/26 05:55:26;;;;;;;9.60;4.97;;;;;;;;;;5092266;28;20074;-65
2022/07/26 05:57:52;;;;;;;9.85;4.47;;;;;;;;;;5092330;28;20038;-65
2022/07/26 06:00:18;;;;;;;10.40;5.38;;;;;;;;;;5092310;28;20028;-64
2022/07/26 06:02:43;;;;;;;12.43;5.40;;;;;;;;;;5092197;28;20158;-65
2022/07/26 06:05:09;;;;;;;10.63;5.00;;;;;;;;;;5092044;28;20060;-64
2022/07/26 06:07:35;;;;;;;13.63;6.20;;;;;;;;;;5091955;28;20469;-65
2022/07/26 06:10:00;;;;;;;12.00;4.60;;;;;;;;;;5091928;28;20036;-63
2022/07/26 06:12:26;;;;;;;13.30;4.63;;;;;;;;;;5091890;28;20114;-64
2022/07/26 06:14:51;;;;;;;8.70;4.03;;;;;;;;;;5093186;28;20035;-65
2022/07/26 06:17:17;;;;;;;10.75;3.45;;;;;;;;;;5095634;28;20112;-64
2022/07/26 06:19:42;;;;;;;15.50;5.20;;;;;;;;;;5095456;28;20059;-65
2022/07/26 06:22:08;;;;;;;9.48;3.60;;;;;;;;;;5095413;28;20089;-65
2022/07/26 06:24:34;;;;;;;8.32;3.58;;;;;;;;;;5095317;28;20032;-65
2022/07/26 06:26:59;;;;;;;7.43;3.45;;;;;;;;;;5094205;28;20389;-65
2022/07/26 06:29:25;;;;;;;12.25;3.65;;;;;;;;;;5095335;28;20131;-64
2022/07/26 06:31:50;;;;;;;6.72;3.22;;;;;;;;;;5095319;28;20020;-65
2022/07/26 06:34:16;;;;;;;7.72;3.40;;;;;;;;;;5095474;28;20028;-64
2022/07/26 06:36:41;;;;;;;6.75;3.38;;;;;;;;;;5095182;28;20051;-65
2022/07/26 06:39:08;;;;;;;6.55;3.08;;;;;;;;;;5095207;28;20042;-65
2022/07/26 06:41:33;;;;;;;7.53;3.13;;;;;;;;;;5095151;28;20066;-64
2022/07/26 06:43:59;;;;;;;13.95;3.83;;;;;;;;;;5095205;28;20078;-65
2022/07/26 06:46:25;;;;;;;9.80;3.97;;;;;;;;;;5095107;28;20513;-64
2022/07/26 06:48:50;;;;;;;6.95;3.10;;;;;;;;;;5095037;28;20362;-65
2022/07/26 06:51:16;;;;;;;7.72;3.20;;;;;;;;;;5094732;28;20116;-65
2022/07/26 06:53:42;;;;;;;6.68;3.30;;;;;;;;;;5094962;28;20017;-65
2022/07/26 06:56:07;;;;;;;8.48;3.50;;;;;;;;;;5095136;28;20440;-65
2022/07/26 06:58:33;;;;;;;9.25;3.53;;;;;;;;;;5091760;28;20035;-65
2022/07/26 07:00:58;;;;;;;6.28;3.20;;;;;;;;;;5090551;28;20039;-65
2022/07/26 07:03:24;;;;;;;8.20;3.25;;;;;;;;;;5085328;28;20465;-64
2022/07/26 07:05:50;;;;;;;9.52;3.08;;;;;;;;;;5094179;28;20411;-64
2022/07/26 07:08:15;;;;;;;6.43;3.40;;;;;;;;;;5094078;28;20123;-65
2022/07/26 07:10:41;;;;;;;13.05;3.60;;;;;;;;;;5094504;28;20077;-64
2022/07/26 07:13:07;;;;;;;8.60;3.40;;;;;;;;;;5094297;28;20477;-64
2022/07/26 07:15:32;;;;;;;8.80;3.15;;;;;;;;;;5094196;28;20039;-64
2022/07/26 07:17:58;;;;;;;8.45;3.20;;;;;;;;;;5094161;28;20024;-64
2022/07/26 07:20:24;;;;;;;4.88;2.83;;;;;;;;;;5093813;28;20036;-65
2022/07/26 07:22:50;;;;;;;7.07;3.33;;;;;;;;;;5094580;28;20461;-65
2022/07/26 07:25:15;;;;;;;5.50;2.65;;;;;;;;;;5093945;28;20059;-65
2022/07/26 07:27:41;;;;;;;13.82;4.45;;;;;;;;;;5091599;28;20035;-65
2022/07/26 07:30:09;;;;;;;6.60;2.95;;;;;;;;;;5093757;28;20028;-64
2022/07/26 07:32:35;;;;;;;6.07;3.13;;;;;;;;;;5093805;28;20393;-64
2022/07/26 07:35:01;;;;;;;6.72;2.78;;;;;;;;;;5093665;28;20049;-65
2022/07/26 07:37:27;;;;;;;5.70;2.67;;;;;;;;;;5093797;28;20020;-65
2022/07/26 07:39:53;;;;;;;5.63;2.20;;;;;;;;;;5093593;28;20038;-64
2022/07/26 07:42:18;;;;;;;4.25;1.92;;;;;;;;;;5093496;28;20543;-65
2022/07/26 07:44:44;;;;;;;6.68;2.28;;;;;;;;;;5093633;28;20047;-65
2022/07/26 07:47:10;;;;;;;9.15;2.60;;;;;;;;;;5093451;28;20107;-65
2022/07/26 07:49:36;;;;;;;5.43;2.00;;;;;;;;;;5093212;28;20032;-65
2022/07/26 07:52:03;;;;;;;5.63;1.98;;;;;;;;;;5093336;28;20024;-65
2022/07/26 07:54:28;;;;;;;4.60;1.92;;;;;;;;;;5093447;28;20469;-64
2022/07/26 07:56:55;;;;;;;5.38;2.20;;;;;;;;;;5093610;28;20082;-66
2022/07/26 07:59:21;;;;;;;4.05;1.98;;;;;;;;;;5093333;28;20127;-65
2022/07/26 08:01:47;;;;;;;6.22;1.83;;;;;;;;;;5093566;28;20416;-66
2022/07/26 08:04:13;;;;;;;6.30;2.20;;;;;;;;;;5093033;28;20028;-66
2022/07/26 08:06:38;;;;;;;6.43;2.40;;;;;;;;;;5092972;28;20103;-66
2022/07/26 08:09:04;;;;;;;8.48;2.10;;;;;;;;;;5093125;28;20028;-66
2022/07/26 08:11:30;;;;;;;5.22;2.38;;;;;;;;;;5093138;28;20024;-66
2022/07/26 08:13:56;;;;;;;6.40;2.30;;;;;;;;;;5093183;28;20024;-66
2022/07/26 08:16:21;;;;;;;9.93;2.22;;;;;;;;;;5093110;28;20075;-66
2022/07/26 08:18:47;;;;;;;5.57;2.13;;;;;;;;;;5092848;28;20047;-66
2022/07/26 08:21:12;;;;;;;6.40;2.35;;;;;;;;;;5072738;28;20029;-65
2022/07/26 08:23:38;;;;;;;6.60;2.20;;;;;;;;;;5072711;28;20478;-66
2022/07/26 08:26:04;;;;;;;8.98;2.15;;;;;;;;;;5072456;28;20110;-66
2022/07/26 08:28:29;;;;;;;5.28;1.95;;;;;;;;;;5072587;28;20033;-66
2022/07/26 08:30:55;;;;;;;6.40;2.03;;;;;;;;;;5072795;28;20021;-66
2022/07/26 08:33:22;;;;;;;6.90;2.05;;;;;;;;;;5072335;28;20534;-66
2022/07/26 08:35:48;;;;;;;5.93;1.80;;;;;;;;;;5072664;28;20028;-66
2022/07/26 08:38:13;;;;;;;6.22;2.45;;;;;;;;;;5072420;28;20489;-66
2022/07/26 08:40:39;;;;;;;3.80;1.67;;;;;;;;;;5072542;28;20037;-66
2022/07/26 08:43:04;;;;;;;5.85;1.65;;;;;;;;;;5072510;28;20052;-66
2022/07/26 08:45:30;;;;;;;4.40;1.88;;;;;;;;;;5072460;28;20024;-66
2022/07/26 08:47:57;;;;;;;5.13;1.58;;;;;;;;;;5072110;28;20056;-64
2022/07/26 08:50:24;;;;;;;6.88;2.17;;;;;;;;;;5072333;28;20426;-66
2022/07/26 08:52:50;;;;;;;8.15;1.80;;;;;;;;;;5072366;28;20119;-66
2022/07/26 08:55:19;;;;;;;5.20;1.52;;;;;;;;;;5072300;28;20230;-64
2022/07/26 08:57:46;;;;;;;5.28;2.08;;;;;;;;;;5072345;28;20457;-65
2022/07/26 09:00:21;;;;;;;5.28;1.88;;;;;;;;;;5072104;28;20037;-66
2022/07/26 09:02:47;;;;;;;3.70;1.63;;;;;;;;;;5072151;28;20481;-67
2022/07/26 09:05:14;;;;;;;5.70;1.67;;;;;;;;;;5072127;28;20470;-66
2022/07/26 09:07:40;;;;;;;6.22;1.77;;;;;;;;;;5072150;28;20104;-66
2022/07/26 09:10:11;;;;;;;4.78;1.50;;;;;;;;;;5072094;28;20111;-67
2022/07/26 09:12:37;;;;;;;5.07;1.80;;;;;;;;;;5072083;28;20060;-66
2022/07/26 09:15:06;;;;;;;5.25;1.60;;;;;;;;;;5072275;28;20025;-64
2022/07/26 09:17:40;;;;;;;4.68;1.58;;;;;;;;;;5071890;28;20028;-65
2022/07/26 09:20:09;;;;;;;4.68;1.60;;;;;;;;;;5082895;28;20039;-65
2022/07/26 09:22:37;;;;;;;3.20;1.60;;;;;;;;;;5092185;28;20024;-66
2022/07/26 09:25:19;;;;;;;3.28;2.00;;;;;;;;;;5092125;28;20119;-65
2022/07/26 09:27:45;;;;;;;3.70;1.42;;;;;;;;;;5092040;28;20020;-65
2022/07/26 09:30:11;;;;;;;2.92;1.50;;;;;;;;;;5092141;28;20461;-65
2022/07/26 09:32:36;;;;;;;4.45;1.35;;;;;;;;;;5091875;28;20032;-65
2022/07/26 09:35:11;;;;;;;4.20;1.27;;;;;;;;;;5092267;28;20114;-67
2022/07/26 09:37:39;;;;;;;4.05;1.70;;;;;;;;;;5092155;28;20387;-66
2022/07/26 09:40:08;;;;;;;5.18;1.40;;;;;;;;;;5091974;28;20032;-65
2022/07/26 09:42:34;;;;;;;5.65;1.40;;;;;;;;;;5091930;28;20396;-65
2022/07/26 09:45:00;;;;;;;2.58;1.38;;;;;;;;;;5091906;28;20096;-66
2022/07/26 09:47:38;;;;;;;4.75;1.20;;;;;;;;;;5092024;28;20466;-64
2022/07/26 09:50:17;;;;;;;5.03;1.40;;;;;;;;;;5093263;28;20538;-66
2022/07/26 09:53:08;;;;;;;2.95;1.20;;;;;;;;;;5095905;28;20036;-65
2022/07/26 09:55:35;;;;;;;2.85;1.45;;;;;;;;;;5095966;28;20016;-65
2022/07/26 09:58:03;;;;;;;7.13;1.73;;;;;;;;;;5094437;28;20411;-67
2022/07/26 10:00:30;;;;;;;3.85;1.40;;;;;;;;;;5095425;28;20095;-66
2022/07/26 10:02:55;;;;;;;5.40;1.70;;;;;;;;;;5095741;28;20385;-66
2022/07/26 10:05:21;;;;;;;5.43;1.77;;;;;;;;;;5095573;28;20095;-64
2022/07/26 10:07:50;;;;;;;6.72;1.58;;;;;;;;;;5095510;28;20028;-64
2022/07/26 10:10:23;;;;;;;5.18;1.70;;;;;;;;;;5095404;28;20032;-64
2022/07/26 10:12:51;;;;;;;4.35;1.90;;;;;;;;;;5095476;28;20052;-64
2022/07/26 10:15:40;;;;;;;7.65;1.80;;;;;;;;;;5095278;28;20051;-65
2022/07/26 10:18:08;;;;;;;5.07;1.90;;;;;;;;;;5095334;28;20036;-65
2022/07/26 10:20:39;;;;;;;5.72;1.83;;;;;;;;;;5094809;28;20035;-66
2022/07/26 10:23:34;;;;;;;8.23;2.20;;;;;;;;;;5095185;28;20115;-67
2022/07/26 10:26:02;;;;;;;4.25;1.52;;;;;;;;;;5094863;28;20086;-67
2022/07/26 10:28:31;;;;;;;3.85;1.55;;;;;;;;;;5094920;28;20020;-66
2022/07/26 10:31:32;;;;;;;8.43;2.00;;;;;;;;;;5089935;28;20024;-65
2022/07/26 10:34:00;;;;;;;3.95;1.70;;;;;;;;;;5034146;28;20042;-65
2022/07/26 10:36:37;;;;;;;3.72;1.40;;;;;;;;;;5015809;28;20044;-66
2022/07/26 10:39:06;;;;;;;4.28;1.52;;;;;;;;;;5031829;28;20120;-66
2022/07/26 10:41:34;;;;;;;3.35;1.63;;;;;;;;;;5032553;28;20495;-65
2022/07/26 10:44:21;;;;;;;4.72;1.73;;;;;;;;;;5015587;28;20124;-66
2022/07/26 10:47:06;;;;;;;4.88;1.90;;;;;;;;;;5032413;28;20057;-65
2022/07/26 10:50:04;;;;;;;6.85;1.98;;;;;;;;;;5028032;28;20045;-66
2022/07/26 10:52:31;;;;;;;4.50;1.55;;;;;;;;;;5032166;28;20149;-64
2022/07/26 10:54:59;;;;;;;4.47;2.05;;;;;;;;;;5032375;28;20065;-66
2022/07/26 10:57:38;;;;;;;3.90;1.55;;;;;;;;;;5032219;28;20026;-66
2022/07/26 11:00:16;;;;;;;3.30;1.80;;;;;;;;;;5032251;28;20624;-66
2022/07/26 11:02:43;;;;;;;4.63;1.73;;;;;;;;;;5031002;28;20103;-65
2022/07/26 11:05:15;;;;;;;4.38;1.50;;;;;;;;;;5032255;28;20068;-66
2022/07/26 11:08:09;;;;;;;4.68;1.48;;;;;;;;;;5056618;28;20036;-65
2022/07/26 11:10:42;;;;;;;4.45;1.70;;;;;;;;;;5094289;28;20554;-66
2022/07/26 11:13:16;;;;;;;3.83;1.58;;;;;;;;;;5094218;28;20508;-66
2022/07/26 11:15:50;;;;;;;3.58;1.67;;;;;;;;;;5094582;28;20607;-65
2022/07/26 11:18:31;;;;;;;3.03;1.48;;;;;;;;;;5094270;28;20055;-65
2022/07/26 11:21:08;;;;;;;4.78;1.70;;;;;;;;;;5076274;28;20040;-65
2022/07/26 11:23:35;;;;;;;5.93;1.50;;;;;;;;;;5073945;28;20117;-66
2022/07/26 11:26:02;;;;;;;4.22;1.60;;;;;;;;;;5073585;28;20155;-66
2022/07/26 11:28:27;;;;;;;9.43;1.52;;;;;;;;;;5073373;28;20497;-66
2022/07/26 11:30:58;;;;;;;3.78;1.35;;;;;;;;;;5073749;28;20028;-66
2022/07/26 11:33:44;;;;;;;8.05;1.60;;;;;;;;;;5073786;28;20039;-66
2022/07/26 11:36:11;;;;;;;8.07;1.80;;;;;;;;;;5073686;28;20469;-66
2022/07/26 11:38:43;;;;;;;4.38;1.20;;;;;;;;;;5073477;28;20043;-65
2022/07/26 11:41:09;;;;;;;3.40;1.30;;;;;;;;;;5073329;28;20036;-65
2022/07/26 11:43:38;;;;;;;3.88;1.20;;;;;;;;;;5073528;28;20020;-65
2022/07/26 11:46:05;;;;;;;5.47;1.50;;;;;;;;;;5073310;28;20489;-65
2022/07/26 11:48:31;;;;;;;5.15;1.15;;;;;;;;;;5073038;28;20037;-64
2022/07/26 11:51:19;;;;;;;5.25;1.40;;;;;;;;;;5073310;28;20078;-63
2022/07/26 11:53:45;;;;;;;3.78;1.40;;;;;;;;;;5073345;28;20086;-66
2022/07/26 11:56:19;;;;;;;3.65;1.30;;;;;;;;;;5079253;28;20477;-64
2022/07/26 11:58:48;;;;;;;4.00;1.20;;;;;;;;;;5093428;28;20039;-65
2022/07/26 12:01:17;;;;;;;1.80;1.00;;;;;;;;;;5093484;28;20107;-65
2022/07/26 12:03:45;;;;;;;5.20;1.40;;;;;;;;;;5093326;28;20070;-68
2022/07/26 12:06:15;;;;;;;4.32;1.15;;;;;;;;;;5093331;28;20116;-67
2022/07/26 12:08:46;;;;;;;2.83;1.02;;;;;;;;;;5093163;28;20077;-66
2022/07/26 12:11:12;;;;;;;5.10;1.00;;;;;;;;;;5091821;28;20024;-67
2022/07/26 12:13:59;;;;;;;3.35;1.27;;;;;;;;;;5092896;28;20428;-66
2022/07/26 12:16:38;;;;;;;2.17;1.10;;;;;;;;;;5093249;28;20027;-68
2022/07/26 12:19:05;;;;;;;3.20;1.00;;;;;;;;;;5093152;28;20020;-68
2022/07/26 12:21:49;;;;;;;4.55;0.93;;;;;;;;;;5092981;28;20069;-66
2022/07/26 12:24:45;;;;;;;1.65;0.90;;;;;;;;;;5092819;28;20055;-63
2022/07/26 12:27:12;;;;;;;4.13;1.30;;;;;;;;;;5092998;28;20161;-67
2022/07/26 12:29:40;;;;;;;5.32;1.10;;;;;;;;;;5092852;28;20035;-63
2022/07/26 12:32:30;;;;;;;2.22;1.02;;;;;;;;;;5092726;28;20111;-63
2022/07/26 12:35:11;;;;;;;3.90;1.30;;;;;;;;;;5092978;28;20485;-66
2022/07/26 12:37:50;;;;;;;3.30;1.10;;;;;;;;;;5092113;28;20032;-66
2022/07/26 12:40:17;;;;;;;4.38;1.58;;;;;;;;;;5092519;28;20178;-67
2022/07/26 12:42:53;;;;;;;3.22;1.08;;;;;;;;;;5092732;28;20054;-65
2022/07/26 12:45:21;;;;;;;5.30;1.40;;;;;;;;;;5092858;28;20055;-63
2022/07/26 12:47:49;;;;;;;5.80;1.38;;;;;;;;;;5092719;28;20524;-66
2022/07/26 12:50:17;;;;;;;3.40;1.05;;;;;;;;;;5092526;28;20028;-64
2022/07/26 12:52:43;;;;;;;2.50;0.88;;;;;;;;;;5092559;28;20077;-67
2022/07/26 12:55:12;;;;;;;4.00;1.00;;;;;;;;;;5092432;28;20020;-67
2022/07/26 12:57:38;;;;;;;2.53;0.90;;;;;;;;;;5092663;28;20083;-66
2022/07/26 13:00:06;;;;;;;3.47;1.02;;;;;;;;;;5092375;28;20569;-65
2022/07/26 13:02:32;;;;;;;3.00;0.77;;;;;;;;;;5092382;28;20581;-67
2022/07/26 13:04:59;;;;;;;5.18;0.93;;;;;;;;;;5092570;28;20179;-67
2022/07/26 13:07:24;;;;;;;3.33;1.00;;;;;;;;;;5092539;28;20032;-67
2022/07/26 13:09:50;;;;;;;1.40;0.80;;;;;;;;;;5092153;28;20066;-66
2022/07/26 13:12:16;;;;;;;2.67;0.90;;;;;;;;;;5092176;28;20101;-67
2022/07/26 13:14:41;;;;;;;3.60;1.05;;;;;;;;;;5092317;28;20020;-64
2022/07/26 13:17:09;;;;;;;2.22;1.02;;;;;;;;;;5092404;28;20024;-67
2022/07/26 13:19:36;;;;;;;6.28;1.13;;;;;;;;;;5085808;28;20082;-67
2022/07/26 13:22:03;;;;;;;2.13;1.00;;;;;;;;;;5072037;28;20070;-66
2022/07/26 13:24:30;;;;;;;5.07;1.10;;;;;;;;;;5072064;28;20442;-64
2022/07/26 13:26:56;;;;;;;4.60;1.17;;;;;;;;;;5076334;28;20029;-68
2022/07/26 13:29:22;;;;;;;5.60;1.33;;;;;;;;;;5076061;28;20377;-66
2022/07/26 13:31:49;;;;;;;3.22;1.50;;;;;;;;;;5075985;28;20024;-67
2022/07/26 13:34:15;;;;;;;3.03;1.10;;;;;;;;;;5075827;28;20443;-66
2022/07/26 13:36:41;;;;;;;4.25;1.10;;;;;;;;;;5075845;28;20028;-64
2022/07/26 13:39:06;;;;;;;2.45;1.10;;;;;;;;;;5075558;28;20033;-65
2022/07/26 13:41:32;;;;;;;2.55;1.10;;;;;;;;;;5075867;28;20055;-67
2022/07/26 13:43:58;;;;;;;4.63;1.02;;;;;;;;;;5075810;28;20043;-67
2022/07/26 13:46:25;;;;;;;3.47;0.90;;;;;;;;;;5075593;28;20028;-67
2022/07/26 13:48:51;;;;;;;6.15;1.30;;;;;;;;;;5075555;28;20020;-66
2022/07/26 13:51:17;;;;;;;8.48;1.20;;;;;;;;;;5075290;28;20381;-67
2022/07/26 13:53:43;;;;;;;4.53;1.20;;;;;;;;;;5075590;28;20028;-66
2022/07/26 13:56:09;;;;;;;3.55;1.10;;;;;;;;;;5075408;28;20375;-67
2022/07/26 13:58:35;;;;;;;4.82;1.00;;;;;;;;;;5075309;28;20074;-66
2022/07/26 14:01:01;;;;;;;4.65;1.15;;;;;;;;;;5075565;28;20024;-66
2022/07/26 14:03:27;;;;;;;11.82;1.40;;;;;;;;;;5075225;28;20028;-67
2022/07/26 14:05:53;;;;;;;3.15;1.40;;;;;;;;;;5075160;28;20430;-68
2022/07/26 14:08:19;;;;;;;3.83;1.00;;;;;;;;;;5075202;28;20107;-68
2022/07/26 14:10:44;;;;;;;4.38;1.42;;;;;;;;;;5101411;28;20040;-67
2022/07/26 14:13:10;;;;;;;2.50;1.00;;;;;;;;;;5112085;28;20031;-66
2022/07/26 14:15:36;;;;;;;5.28;1.08;;;;;;;;;;5111909;28;20106;-68
2022/07/26 14:18:01;;;;;;;3.47;0.90;;;;;;;;;;5111931;28;20047;-66
2022/07/26 14:20:27;;;;;;;5.05;1.50;;;;;;;;;;5097391;28;20040;-67
2022/07/26 14:22:55;;;;;;;4.10;1.05;;;;;;;;;;5091371;28;20081;-66
2022/07/26 14:25:25;;;;;;;2.00;0.80;;;;;;;;;;5091219;28;20066;-67
2022/07/26 14:27:51;;;;;;;;;;;;;;;;;;5090443;28;20434;-67
2022/07/26 14:30:16;;;;;;;3.83;1.17;;;;;;;;;;5091113;28;19920;-64
2022/07/26 14:32:42;;;;;;;4.38;1.10;;;;;;;;;;5091346;28;20024;-67
2022/07/26 14:35:08;;;;;;;3.30;0.95;;;;;;;;;;5091075;28;20024;-65
2022/07/26 14:37:34;;;;;;;2.05;0.90;;;;;;;;;;5091065;28;20032;-66
2022/07/26 14:39:59;;;;;;;3.17;1.00;;;;;;;;;;5090988;28;20028;-66
2022/07/26 14:42:25;;;;;;;2.72;0.90;;;;;;;;;;5090599;28;20035;-66
2022/07/26 14:44:50;;;;;;;5.50;0.90;;;;;;;;;;5091064;28;20030;-64
2022/07/26 14:47:16;;;;;;;3.95;1.17;;;;;;;;;;5091134;28;20024;-67